Time;durP1;ratioP1;P1;durP2;ratioP2;P2;SDS_P1;SDS_P2;PMS_P1;PMS_P2;Temp;Humidity;BMP_temperature;BMP_pressure;BME280_temperature;BME280_humidity;BME280_pressure;Samples;Min_cycle;Max_cycle;Signal;HPM_P1;HPM_P2
2023/06/13 00:00:10;;;;;;;;;;;20.00;99.90;20.00;98827.00;;;;332834;29;82478;-93
2023/06/13 00:00:23;;;;;;;;;;;20.00;99.90;20.10;98822.00;;;;331266;29;88341;-92
2023/06/13 00:00:37;;;;;;;;;;;19.90;99.90;20.00;98823.00;;;;334136;29;82515;-92
2023/06/13 00:00:49;;;;;;;;;;;19.90;99.90;20.00;98828.00;;;;334915;29;91886;-92
2023/06/13 00:01:04;;;;;;;;;;;19.90;99.90;20.00;98830.00;;;;334141;29;83438;-92
2023/06/13 00:01:16;;;;;;;;;;;19.90;99.90;20.00;98826.00;;;;333659;29;90789;-93
2023/06/13 00:01:30;;;;;;;;;;;19.90;99.90;20.20;98829.00;;;;334053;29;82498;-92
2023/06/13 00:01:48;;;;;;;;;;;19.90;99.90;20.30;98830.00;;;;332508;29;90380;-92
2023/06/13 00:02:00;;;;;;;;;;;20.00;99.90;20.20;98832.00;;;;334199;29;82549;-92
2023/06/13 00:02:13;;;;;;;;;;;20.00;99.90;20.20;98820.00;;;;332357;29;92425;-92
2023/06/13 00:02:25;;;;;;;;;;;20.00;99.90;20.20;98826.00;;;;334033;29;83477;-92
2023/06/13 00:02:40;;;;;;;;;;;20.00;99.90;20.30;98830.00;;;;332419;29;91476;-92
2023/06/13 00:02:52;;;;;;;;;;;20.00;99.90;20.20;98824.00;;;;332796;29;83525;-92
2023/06/13 00:03:03;;;;;;;;;;;20.00;99.90;20.30;98827.00;;;;335008;29;90952;-92
2023/06/13 00:03:15;;;;;;;;;;;20.00;99.90;20.30;98828.00;;;;336798;28;83183;-92
2023/06/13 00:03:29;;;;;;;;;;;20.00;99.90;20.20;98826.00;;;;333814;29;90174;-92
2023/06/13 00:03:42;;;;;;;;;;;20.00;99.90;20.20;98824.00;;;;334516;29;82526;-92
2023/06/13 00:03:53;;;;;;;;;;;20.00;99.90;20.30;98829.00;;;;335459;29;91001;-92
2023/06/13 00:04:06;;;;;;;;;;;20.10;99.90;20.20;98818.00;;;;335712;29;82486;-92
2023/06/13 00:04:21;;;;;;;;;;;20.00;99.90;20.10;98829.00;;;;335233;29;88834;-92
2023/06/13 00:04:34;;;;;;;;;;;20.00;99.90;20.00;98828.00;;;;334293;29;83508;-91
2023/06/13 00:04:48;;;;;;;;;;;20.00;99.90;20.00;98828.00;;;;333989;29;91199;-91
2023/06/13 00:05:03;;;;;;;;;;;20.00;99.90;20.00;98826.00;;;;332944;29;82592;-92
2023/06/13 00:05:16;;;;;;;;;;;20.00;99.90;20.10;98825.00;;;;334075;29;91630;-92
2023/06/13 00:05:28;;;;;;;;;;;20.00;99.90;20.00;98836.00;;;;335647;29;83417;-92
2023/06/13 00:05:46;;;;;;;;;;;20.00;99.90;19.90;98828.00;;;;334173;29;91219;-92
2023/06/13 00:06:01;;;;;;;;;;;20.00;99.90;19.90;98830.00;;;;334540;29;83209;-92
2023/06/13 00:06:15;;;;;;;;;;;20.00;99.90;19.90;98829.00;;;;335315;29;91198;-92
2023/06/13 00:06:29;;;;;;;;;;;20.00;99.90;19.90;98829.00;;;;335673;29;83439;-92
2023/06/13 00:06:40;;;;;;;;;;;20.00;99.90;19.80;98823.00;;;;333958;29;91554;-92
2023/06/13 00:06:54;;;;;;;;;;;20.00;99.90;19.90;98832.00;;;;334341;29;82523;-92
2023/06/13 00:07:09;;;;;;;;;;;19.90;99.90;19.90;98830.00;;;;334051;29;91351;-91
2023/06/13 00:07:22;;;;;;;;;;;19.90;99.90;19.90;98829.00;;;;335465;29;82530;-92
2023/06/13 00:07:37;;;;;;;;;;;19.90;99.90;19.90;98830.00;;;;334882;29;90990;-90
2023/06/13 00:07:49;;;;;;;;;;;19.90;99.90;19.90;98832.00;;;;335459;29;83397;-92
2023/06/13 00:08:02;;;;;;;;;;;19.90;99.90;20.00;98823.00;;;;335062;29;91784;-93
2023/06/13 00:08:17;;;;;;;;;;;19.90;99.90;20.00;98826.00;;;;335266;29;83472;-92
2023/06/13 00:08:31;;;;;;;;;;;19.90;99.90;19.90;98833.00;;;;334931;29;91862;-92
2023/06/13 00:08:43;;;;;;;;;;;19.90;99.90;20.00;98824.00;;;;334161;29;83373;-93
2023/06/13 00:08:58;;;;;;;;;;;19.90;99.90;19.90;98831.00;;;;332348;29;92291;-92
2023/06/13 00:09:10;;;;;;;;;;;19.90;99.90;19.80;98834.00;;;;331604;29;82579;-92
2023/06/13 00:09:25;;;;;;;;;;;19.90;99.90;19.80;98831.00;;;;333778;29;90963;-92
2023/06/13 00:09:37;;;;;;;;;;;19.90;99.90;19.80;98829.00;;;;334080;29;83487;-92
2023/06/13 00:09:49;;;;;;;;;;;19.90;99.90;19.80;98822.00;;;;333685;29;91985;-92
2023/06/13 00:10:01;;;;;;;;;;;19.90;99.90;19.80;98822.00;;;;334141;29;83462;-92
2023/06/13 00:10:13;;;;;;;;;;;19.90;99.90;20.00;98825.00;;;;333750;29;90155;-92
2023/06/13 00:10:25;;;;;;;;;;;19.90;99.90;19.90;98837.00;;;;334067;29;83374;-92
2023/06/13 00:10:37;;;;;;;;;;;19.90;99.90;20.00;98829.00;;;;333735;29;91023;-92
2023/06/13 00:10:50;;;;;;;;;;;19.90;99.90;20.00;98836.00;;;;335447;29;83435;-92
2023/06/13 00:11:02;;;;;;;;;;;19.90;99.90;20.00;98836.00;;;;334800;28;92371;-92
2023/06/13 00:11:14;;;;;;;;;;;19.90;99.90;19.90;98832.00;;;;332826;29;82536;-92
2023/06/13 00:11:26;;;;;;;;;;;19.90;99.90;20.00;98829.00;;;;333710;29;91585;-92
2023/06/13 00:11:38;;;;;;;;;;;19.90;99.90;19.90;98831.00;;;;335407;29;83520;-92
2023/06/13 00:11:52;;;;;;;;;;;19.90;99.90;20.00;98829.00;;;;332373;29;90226;-92
2023/06/13 00:12:05;;;;;;;;;;;19.90;99.90;19.90;98837.00;;;;335313;29;83547;-92
2023/06/13 00:12:20;;;;;;;;;;;19.90;99.90;19.80;98838.00;;;;333738;29;89454;-92
2023/06/13 00:12:32;;;;;;;;;;;19.90;99.90;19.80;98834.00;;;;334095;29;83459;-92
2023/06/13 00:12:46;;;;;;;;;;;19.90;99.90;20.00;98831.00;;;;335124;29;90098;-92
2023/06/13 00:12:58;;;;;;;;;;;19.90;99.90;20.00;98834.00;;;;334042;29;83422;-92
2023/06/13 00:13:10;;;;;;;;;;;19.90;99.90;20.00;98833.00;;;;335057;29;91564;-92
2023/06/13 00:13:24;;;;;;;;;;;19.90;99.90;19.90;98832.00;;;;334141;29;83363;-92
2023/06/13 00:13:39;;;;;;;;;;;19.90;99.90;19.80;98837.00;;;;333499;29;90016;-92
2023/06/13 00:13:53;;;;;;;;;;;19.90;99.90;19.90;98840.00;;;;335335;29;83409;-92
2023/06/13 00:14:04;;;;;;;;;;;19.90;99.90;19.90;98836.00;;;;332245;29;91812;-92
2023/06/13 00:14:19;;;;;;;;;;;19.90;99.90;19.80;98841.00;;;;333873;29;84622;-92
2023/06/13 00:14:31;;;;;;;;;;;19.90;99.90;19.80;98836.00;;;;334811;29;90896;-92
2023/06/13 00:14:43;;;;;;;;;;;19.80;99.90;19.80;98832.00;;;;333903;29;83501;-91
2023/06/13 00:14:56;;;;;;;;;;;19.80;99.90;19.90;98841.00;;;;333657;29;91303;-92
2023/06/13 00:15:10;;;;;;;;;;;19.80;99.90;19.90;98836.00;;;;335498;29;83413;-92
2023/06/13 00:15:23;;;;;;;;;;;19.90;99.90;19.80;98836.00;;;;333637;29;92243;-92
2023/06/13 00:15:35;;;;;;;;;;;19.90;99.90;19.80;98833.00;;;;334071;29;83584;-92
2023/06/13 00:15:51;;;;;;;;;;;19.80;99.90;19.90;98840.00;;;;334877;29;90778;-92
2023/06/13 00:16:03;;;;;;;;;;;19.90;99.90;19.90;98842.00;;;;335451;29;83368;-92
2023/06/13 00:16:15;;;;;;;;;;;19.80;99.90;19.80;98838.00;;;;333695;29;91123;-92
2023/06/13 00:16:27;;;;;;;;;;;19.80;99.90;19.80;98835.00;;;;334059;29;83372;-92
2023/06/13 00:16:39;;;;;;;;;;;19.80;99.90;19.70;98834.00;;;;334801;29;89453;-91
2023/06/13 00:16:51;;;;;;;;;;;19.80;99.90;19.70;98837.00;;;;334087;29;83432;-92
2023/06/13 00:17:04;;;;;;;;;;;19.80;99.90;19.70;98835.00;;;;333682;29;91583;-92
2023/06/13 00:17:17;;;;;;;;;;;19.80;99.90;19.90;98841.00;;;;335400;29;83320;-92
2023/06/13 00:17:29;;;;;;;;;;;19.80;99.90;19.90;98842.00;;;;333607;29;92709;-92
2023/06/13 00:17:41;;;;;;;;;;;19.80;99.90;19.90;98838.00;;;;336770;28;82361;-92
2023/06/13 00:17:53;;;;;;;;;;;19.80;99.90;19.80;98831.00;;;;334978;29;91906;-92
2023/06/13 00:18:05;;;;;;;;;;;19.80;99.90;19.90;98835.00;;;;335558;29;82304;-92
2023/06/13 00:18:19;;;;;;;;;;;19.80;99.90;19.80;98838.00;;;;333577;29;91606;-93
2023/06/13 00:18:31;;;;;;;;;;;19.80;99.90;19.70;98836.00;;;;335361;29;82555;-92
2023/06/13 00:18:44;;;;;;;;;;;19.80;99.90;19.70;98836.00;;;;333505;29;90472;-92
2023/06/13 00:18:56;;;;;;;;;;;19.80;99.90;19.70;98832.00;;;;334127;29;82658;-92
2023/06/13 00:19:09;;;;;;;;;;;19.80;99.90;19.80;98841.00;;;;333718;29;91854;-92
2023/06/13 00:19:23;;;;;;;;;;;19.80;99.90;19.90;98837.00;;;;335444;29;83502;-92
2023/06/13 00:19:36;;;;;;;;;;;19.80;99.90;19.90;98842.00;;;;332271;29;92591;-92
2023/06/13 00:19:48;;;;;;;;;;;19.80;99.90;19.90;98836.00;;;;334179;29;82425;-92
2023/06/13 00:20:00;;;;;;;;;;;19.80;99.90;19.80;98834.00;;;;335069;29;90764;-92
2023/06/13 00:20:12;;;;;;;;;;;19.80;99.90;19.80;98831.00;;;;333991;29;82468;-92
2023/06/13 00:20:26;;;;;;;;;;;19.80;99.90;20.00;98832.00;;;;334964;29;90188;-92
2023/06/13 00:20:40;;;;;;;;;;;19.80;99.90;19.90;98841.00;;;;334094;29;82604;-92
2023/06/13 00:20:54;;;;;;;;;;;19.80;99.90;19.90;98832.00;;;;332388;29;90897;-92
2023/06/13 00:21:07;;;;;;;;;;;19.80;99.90;19.80;98835.00;;;;334121;29;83461;-92
2023/06/13 00:21:19;;;;;;;;;;;19.80;99.90;19.90;98839.00;;;;334985;29;91551;-92
2023/06/13 00:21:32;;;;;;;;;;;19.80;99.90;19.90;98838.00;;;;332752;29;83412;-92
2023/06/13 00:21:47;;;;;;;;;;;19.80;99.90;19.80;98837.00;;;;333709;29;92009;-92
2023/06/13 00:21:59;;;;;;;;;;;19.80;99.90;19.80;98841.00;;;;332707;29;82682;-92
2023/06/13 00:22:13;;;;;;;;;;;19.80;99.90;19.80;98838.00;;;;333751;29;90442;-92
2023/06/13 00:22:25;;;;;;;;;;;19.80;99.90;19.80;98837.00;;;;332863;29;83365;-92
2023/06/13 00:22:37;;;;;;;;;;;19.80;99.90;19.80;98835.00;;;;334981;29;91565;-92
2023/06/13 00:22:49;;;;;;;;;;;19.80;99.90;19.70;98840.00;;;;335454;29;82501;-92
2023/06/13 00:23:03;;;;;;;;;;;19.80;99.90;19.70;98825.00;;;;334944;29;91998;-92
2023/06/13 00:23:16;;;;;;;;;;;19.80;99.90;19.70;98829.00;;;;334139;29;82354;-92
2023/06/13 00:23:28;;;;;;;;;;;19.80;99.90;19.60;98830.00;;;;332515;29;90336;-91
2023/06/13 00:23:40;;;;;;;;;;;19.80;99.90;19.60;98835.00;;;;334088;29;83465;-92
2023/06/13 00:23:51;;;;;;;;;;;19.80;99.90;19.60;98834.00;;;;336173;28;91974;-92
2023/06/13 00:24:04;;;;;;;;;;;19.80;99.90;19.60;98835.00;;;;336720;28;83423;-92
2023/06/13 00:24:16;;;;;;;;;;;19.80;99.90;19.60;98834.00;;;;333677;29;90509;-92
2023/06/13 00:24:28;;;;;;;;;;;19.70;99.90;19.70;98839.00;;;;335416;29;82471;-92
2023/06/13 00:24:43;;;;;;;;;;;19.80;99.90;19.70;98828.00;;;;335059;29;90954;-92
2023/06/13 00:24:56;;;;;;;;;;;19.80;99.90;19.70;98836.00;;;;336646;28;83509;-92
2023/06/13 00:25:08;;;;;;;;;;;19.70;99.90;19.70;98841.00;;;;332426;29;91863;-92
2023/06/13 00:25:20;;;;;;;;;;;19.80;99.90;19.60;98830.00;;;;334174;29;83397;-92
2023/06/13 00:25:31;;;;;;;;;;;19.80;99.90;19.60;98837.00;;;;336221;28;91930;-92
2023/06/13 00:25:43;;;;;;;;;;;19.70;99.90;19.70;98831.00;;;;335454;29;83435;-92
2023/06/13 00:25:56;;;;;;;;;;;19.70;99.90;19.70;98837.00;;;;333591;28;91482;-93
2023/06/13 00:26:08;;;;;;;;;;;19.70;99.90;19.60;98835.00;;;;335434;29;83399;-92
2023/06/13 00:26:20;;;;;;;;;;;19.70;99.90;19.60;98835.00;;;;336848;28;91764;-92
2023/06/13 00:26:31;;;;;;;;;;;19.70;99.90;19.60;98828.00;;;;335055;29;83537;-92
2023/06/13 00:26:43;;;;;;;;;;;19.70;99.90;19.70;98839.00;;;;335993;29;91830;-92
2023/06/13 00:26:55;;;;;;;;;;;19.70;99.90;19.80;98827.00;;;;337895;28;83566;-92
2023/06/13 00:27:07;;;;;;;;;;;19.70;99.90;19.90;98835.00;;;;336085;29;90562;-92
2023/06/13 00:27:19;;;;;;;;;;;19.70;99.90;19.90;98842.00;;;;336514;29;82507;-92
2023/06/13 00:27:34;;;;;;;;;;;19.70;99.90;19.80;98836.00;;;;338464;28;90341;-91
2023/06/13 00:27:46;;;;;;;;;;;19.70;99.90;19.80;98836.00;;;;334722;29;82533;-92
2023/06/13 00:27:58;;;;;;;;;;;19.70;99.90;19.70;98840.00;;;;337040;28;88967;-92
2023/06/13 00:28:10;;;;;;;;;;;19.70;99.90;19.80;98839.00;;;;340265;28;82464;-92
2023/06/13 00:28:21;;;;;;;;;;;19.70;99.90;19.90;98841.00;;;;334709;29;90215;-92
2023/06/13 00:28:33;;;;;;;;;;;19.70;99.90;19.90;98843.00;;;;337666;28;82488;-92
2023/06/13 00:28:45;;;;;;;;;;;19.80;99.90;19.90;98840.00;;;;337221;28;90562;-92
2023/06/13 00:28:57;;;;;;;;;;;19.80;99.90;19.80;98839.00;;;;333983;29;82578;-92
2023/06/13 00:29:09;;;;;;;;;;;19.80;99.90;19.70;98839.00;;;;336215;29;91356;-92
2023/06/13 00:29:21;;;;;;;;;;;19.80;99.90;19.70;98840.00;;;;339115;28;82674;-92
2023/06/13 00:29:32;;;;;;;;;;;19.80;99.90;19.60;98840.00;;;;335801;29;87997;-93
2023/06/13 00:29:44;;;;;;;;;;;19.70;99.90;19.60;98837.00;;;;337584;28;82430;-92
2023/06/13 00:29:56;;;;;;;;;;;19.70;99.90;19.60;98835.00;;;;334678;29;91830;-92
2023/06/13 00:30:08;;;;;;;;;;;19.70;99.90;19.60;98838.00;;;;337611;28;83328;-92
2023/06/13 00:30:20;;;;;;;;;;;19.70;99.90;19.70;98839.00;;;;337274;28;90214;-92
2023/06/13 00:30:32;;;;;;;;;;;19.70;99.90;19.70;98845.00;;;;335095;29;82404;-92
2023/06/13 00:30:45;;;;;;;;;;;19.70;99.90;19.60;98845.00;;;;337360;28;90599;-91
2023/06/13 00:30:57;;;;;;;;;;;19.70;99.90;19.50;98841.00;;;;337442;28;82567;-92
2023/06/13 00:31:09;;;;;;;;;;;19.70;99.90;19.60;98849.00;;;;335810;29;90265;-91
2023/06/13 00:31:21;;;;;;;;;;;19.70;99.90;19.70;98840.00;;;;337344;28;83526;-92
2023/06/13 00:31:33;;;;;;;;;;;19.70;99.90;19.70;98842.00;;;;335476;29;91007;-92
2023/06/13 00:31:45;;;;;;;;;;;19.70;99.90;19.60;98842.00;;;;335677;29;82652;-91
2023/06/13 00:31:57;;;;;;;;;;;19.70;99.90;19.60;98840.00;;;;336733;28;91444;-92
2023/06/13 00:32:09;;;;;;;;;;;19.70;99.90;19.70;98840.00;;;;336964;28;83407;-92
2023/06/13 00:32:21;;;;;;;;;;;19.70;99.90;19.80;98853.00;;;;335034;29;90692;-92
2023/06/13 00:32:32;;;;;;;;;;;19.80;99.90;19.80;98839.00;;;;336729;28;83365;-92
2023/06/13 00:32:45;;;;;;;;;;;19.70;99.90;19.70;98839.00;;;;334937;29;91786;-92
2023/06/13 00:32:57;;;;;;;;;;;19.80;99.90;19.80;98839.00;;;;335263;29;83413;-92
2023/06/13 00:33:11;;;;;;;;;;;19.80;99.90;19.80;98842.00;;;;336340;28;91542;-92
2023/06/13 00:33:31;;;;;;;;;;;19.80;99.90;19.70;98847.00;;;;335447;29;83304;-92
2023/06/13 00:33:43;;;;;;;;;;;19.70;99.90;19.60;98843.00;;;;334985;29;90545;-92
2023/06/13 00:33:59;;;;;;;;;;;19.70;99.90;19.60;98846.00;;;;336599;28;82366;-92
2023/06/13 00:34:11;;;;;;;;;;;19.70;99.90;19.70;98844.00;;;;336189;28;91349;-92
2023/06/13 00:34:23;;;;;;;;;;;19.70;99.90;19.70;98835.00;;;;335388;29;83479;-91
2023/06/13 00:34:36;;;;;;;;;;;19.70;99.90;19.80;98849.00;;;;335028;29;89883;-92
2023/06/13 00:34:47;;;;;;;;;;;19.80;99.90;19.90;98849.00;;;;336644;28;82520;-92
2023/06/13 00:34:59;;;;;;;;;;;19.80;99.90;19.80;98840.00;;;;335054;29;91332;-92
2023/06/13 00:35:12;;;;;;;;;;;19.80;99.90;19.80;98835.00;;;;335447;29;83452;-90
2023/06/13 00:35:23;;;;;;;;;;;19.80;99.90;19.60;98838.00;;;;335038;29;90721;-92
2023/06/13 00:35:35;;;;;;;;;;;19.70;99.90;19.50;98842.00;;;;336846;28;82402;-92
2023/06/13 00:35:47;;;;;;;;;;;19.70;99.90;19.50;98838.00;;;;336229;28;91178;-92
2023/06/13 00:35:59;;;;;;;;;;;19.70;99.90;19.50;98844.00;;;;336664;28;82414;-92
2023/06/13 00:36:16;;;;;;;;;;;19.70;99.90;19.60;98843.00;;;;332412;29;91446;-92
2023/06/13 00:36:28;;;;;;;;;;;19.70;99.90;19.70;98837.00;;;;336596;28;82554;-92
2023/06/13 00:36:43;;;;;;;;;;;19.70;99.90;19.60;98839.00;;;;336339;28;90707;-91
2023/06/13 00:36:55;;;;;;;;;;;19.70;99.90;19.50;98841.00;;;;336488;28;83517;-92
2023/06/13 00:37:12;;;;;;;;;;;19.70;99.90;19.50;98841.00;;;;336348;28;90266;-92
2023/06/13 00:37:29;;;;;;;;;;;19.70;99.90;19.60;98840.00;;;;335383;29;83412;-92
2023/06/13 00:37:41;;;;;;;;;;;19.70;99.90;19.50;98845.00;;;;336254;28;92739;-92
2023/06/13 00:37:56;;;;;;;;;;;19.70;99.90;19.60;98837.00;;;;336607;28;83553;-92
2023/06/13 00:38:08;;;;;;;;;;;19.70;99.90;19.70;98845.00;;;;333721;29;91368;-92
2023/06/13 00:38:21;;;;;;;;;;;19.70;99.90;19.80;98838.00;;;;336700;28;83422;-91
2023/06/13 00:38:33;;;;;;;;;;;19.70;99.90;19.70;98840.00;;;;336113;28;92114;-92
2023/06/13 00:38:47;;;;;;;;;;;19.70;99.90;19.80;98837.00;;;;334106;29;83433;-92
2023/06/13 00:38:59;;;;;;;;;;;19.70;99.90;19.70;98836.00;;;;333642;29;91396;-92
2023/06/13 00:39:11;;;;;;;;;;;19.70;99.90;19.60;98831.00;;;;336794;28;82450;-92
2023/06/13 00:39:23;;;;;;;;;;;19.70;99.90;19.50;98829.00;;;;335069;28;89917;-92
2023/06/13 00:39:36;;;;;;;;;;;19.70;99.90;19.50;98827.00;;;;335422;29;83423;-91
2023/06/13 00:39:48;;;;;;;;;;;19.60;99.90;19.50;98836.00;;;;334914;29;90940;-92
2023/06/13 00:40:00;;;;;;;;;;;19.60;99.90;19.50;98838.00;;;;336725;28;82437;-91
2023/06/13 00:40:12;;;;;;;;;;;19.60;99.90;19.60;98836.00;;;;334923;29;91533;-91
2023/06/13 00:40:24;;;;;;;;;;;19.60;99.90;19.60;98832.00;;;;335393;29;82575;-91
2023/06/13 00:40:36;;;;;;;;;;;19.60;99.90;19.50;98837.00;;;;333692;29;89126;-91
2023/06/13 00:40:49;;;;;;;;;;;19.60;99.90;19.60;98834.00;;;;336597;28;83339;-92
2023/06/13 00:41:02;;;;;;;;;;;19.60;99.90;19.70;98833.00;;;;334855;28;90183;-91
2023/06/13 00:41:13;;;;;;;;;;;19.60;99.90;19.80;98839.00;;;;336766;28;83429;-91
2023/06/13 00:41:25;;;;;;;;;;;19.60;99.90;19.70;98834.00;;;;334961;29;92010;-91
2023/06/13 00:41:37;;;;;;;;;;;19.60;99.90;19.70;98838.00;;;;334063;29;82579;-91
2023/06/13 00:41:49;;;;;;;;;;;19.60;99.90;19.70;98836.00;;;;337505;28;91740;-91
2023/06/13 00:42:01;;;;;;;;;;;19.60;99.90;19.60;98831.00;;;;337949;28;83406;-89
2023/06/13 00:42:13;;;;;;;;;;;19.60;99.90;19.60;98837.00;;;;333668;29;89795;-91
2023/06/13 00:42:25;;;;;;;;;;;19.60;99.90;19.50;98830.00;;;;332839;29;82461;-91
2023/06/13 00:42:37;;;;;;;;;;;19.60;99.90;19.50;98833.00;;;;336180;28;91682;-91
2023/06/13 00:42:56;;;;;;;;;;;19.60;99.90;19.60;98838.00;;;;335386;29;82496;-91
2023/06/13 00:43:07;;;;;;;;;;;19.60;99.90;19.50;98838.00;;;;333709;29;90570;-91
2023/06/13 00:43:19;;;;;;;;;;;19.60;99.90;19.60;98832.00;;;;336712;28;83335;-91
2023/06/13 00:43:32;;;;;;;;;;;19.60;99.90;19.60;98831.00;;;;336216;28;90577;-92
2023/06/13 00:43:44;;;;;;;;;;;19.60;99.90;19.60;98829.00;;;;335407;29;82505;-91
2023/06/13 00:43:56;;;;;;;;;;;19.60;99.90;19.60;98832.00;;;;336112;28;91407;-91
2023/06/13 00:44:08;;;;;;;;;;;19.60;99.90;19.60;98827.00;;;;336608;28;83467;-91
2023/06/13 00:44:20;;;;;;;;;;;19.60;99.90;19.60;98835.00;;;;333779;29;89954;-92
2023/06/13 00:44:33;;;;;;;;;;;19.60;99.90;19.60;98827.00;;;;336702;28;82512;-91
2023/06/13 00:44:45;;;;;;;;;;;19.60;99.90;19.60;98833.00;;;;336229;28;92697;-91
2023/06/13 00:45:23;;;;;;;;;;;19.60;99.90;19.60;98836.00;;;;336632;28;83502;-91
2023/06/13 00:45:35;;;;;;;;;;;19.60;99.90;19.70;98835.00;;;;337600;28;90350;-91
2023/06/13 00:45:47;;;;;;;;;;;19.60;99.90;19.60;98834.00;;;;335419;29;82520;-91
2023/06/13 00:46:00;;;;;;;;;;;19.60;99.90;19.70;98835.00;;;;333816;29;89204;-91
2023/06/13 00:46:17;;;;;;;;;;;19.60;99.90;19.60;98835.00;;;;335297;29;84154;-91
2023/06/13 00:46:30;;;;;;;;;;;19.60;99.90;19.70;98837.00;;;;335010;29;89472;-91
2023/06/13 00:46:43;;;;;;;;;;;19.60;99.90;19.80;98833.00;;;;336785;28;83471;-91
2023/06/13 00:46:56;;;;;;;;;;;19.60;99.90;19.70;98831.00;;;;333713;29;91179;-91
2023/06/13 00:47:07;;;;;;;;;;;19.60;99.90;19.70;98836.00;;;;336988;28;83417;-92
2023/06/13 00:47:19;;;;;;;;;;;19.60;99.90;19.80;98833.00;;;;335209;29;91991;-91
2023/06/13 00:47:32;;;;;;;;;;;19.60;99.90;19.70;98826.00;;;;338364;28;83492;-91
2023/06/13 00:47:45;;;;;;;;;;;19.60;99.90;19.70;98836.00;;;;336614;28;90591;-92
2023/06/13 00:48:02;;;;;;;;;;;19.60;99.90;19.70;98837.00;;;;333077;29;82512;-92
2023/06/13 00:48:14;;;;;;;;;;;19.60;99.90;19.70;98830.00;;;;332503;29;91390;-92
2023/06/13 00:48:26;;;;;;;;;;;19.60;99.90;19.70;98826.00;;;;337022;28;82401;-92
2023/06/13 00:48:38;;;;;;;;;;;19.60;99.90;19.80;98833.00;;;;337994;28;90939;-91
2023/06/13 00:48:50;;;;;;;;;;;19.60;99.90;19.90;98844.00;;;;335677;29;82483;-91
2023/06/13 00:49:02;;;;;;;;;;;19.60;99.90;19.90;98841.00;;;;336531;28;90251;-91
2023/06/13 00:49:16;;;;;;;;;;;19.60;99.90;19.90;98831.00;;;;335715;29;83420;-92
2023/06/13 00:49:28;;;;;;;;;;;19.70;99.90;19.90;98834.00;;;;336573;28;91923;-91
2023/06/13 00:49:41;;;;;;;;;;;19.70;99.90;19.90;98843.00;;;;335683;29;83468;-92
2023/06/13 00:49:53;;;;;;;;;;;19.70;99.90;19.80;98840.00;;;;335295;29;90896;-91
2023/06/13 00:50:05;;;;;;;;;;;19.70;99.90;19.80;98842.00;;;;335571;29;83468;-91
2023/06/13 00:50:19;;;;;;;;;;;19.60;99.90;19.90;98835.00;;;;333926;29;91628;-91
2023/06/13 00:50:45;;;;;;;;;;;19.60;99.90;19.60;98831.00;;;;337070;28;83405;-91
2023/06/13 00:50:57;;;;;;;;;;;19.70;99.90;19.60;98836.00;;;;334997;29;90931;-91
2023/06/13 00:51:10;;;;;;;;;;;19.60;99.90;19.50;98844.00;;;;335194;29;83501;-92
2023/06/13 00:51:23;;;;;;;;;;;19.60;99.90;19.60;98838.00;;;;336247;28;90611;-92
2023/06/13 00:51:40;;;;;;;;;;;19.60;99.90;19.60;98840.00;;;;336656;28;82569;-91
2023/06/13 00:51:52;;;;;;;;;;;19.60;99.90;19.70;98843.00;;;;336179;28;91433;-92
2023/06/13 00:52:04;;;;;;;;;;;19.60;99.90;19.60;98840.00;;;;336680;28;83436;-91
2023/06/13 00:52:16;;;;;;;;;;;19.60;99.90;19.60;98840.00;;;;333617;29;91135;-91
2023/06/13 00:52:28;;;;;;;;;;;19.60;99.90;19.70;98844.00;;;;335438;29;82463;-92
2023/06/13 00:52:40;;;;;;;;;;;19.60;99.90;19.70;98844.00;;;;334991;29;91475;-91
2023/06/13 00:52:53;;;;;;;;;;;19.60;99.90;19.70;98850.00;;;;333956;29;83376;-91
2023/06/13 00:53:09;;;;;;;;;;;19.60;99.90;19.60;98845.00;;;;336203;28;90294;-92
2023/06/13 00:53:21;;;;;;;;;;;19.60;99.90;19.70;98843.00;;;;336722;28;83386;-92
2023/06/13 00:53:33;;;;;;;;;;;19.60;99.90;19.70;98843.00;;;;334852;29;91492;-92
2023/06/13 00:53:45;;;;;;;;;;;19.60;99.90;19.80;98834.00;;;;336741;28;83367;-91
2023/06/13 00:53:58;;;;;;;;;;;19.60;99.90;19.80;98848.00;;;;333709;29;92307;-92
2023/06/13 00:54:10;;;;;;;;;;;19.60;99.90;19.80;98841.00;;;;336696;28;83420;-92
2023/06/13 00:54:23;;;;;;;;;;;19.70;99.90;19.60;98847.00;;;;334983;29;90399;-92
2023/06/13 00:54:37;;;;;;;;;;;19.60;99.90;19.50;98843.00;;;;335412;29;83933;-91
2023/06/13 00:54:49;;;;;;;;;;;19.60;99.90;19.70;98852.00;;;;337472;28;90574;-91
2023/06/13 00:55:05;;;;;;;;;;;19.60;99.90;19.70;98851.00;;;;334068;29;83386;-92
2023/06/13 00:55:18;;;;;;;;;;;19.60;99.90;19.60;98847.00;;;;336205;28;91994;-91
2023/06/13 00:55:29;;;;;;;;;;;19.60;99.90;19.60;98849.00;;;;334092;29;83380;-92
2023/06/13 00:55:42;;;;;;;;;;;19.60;99.90;19.60;98844.00;;;;337653;28;90597;-92
2023/06/13 00:55:54;;;;;;;;;;;19.60;99.90;19.50;98849.00;;;;335620;29;83306;-92
2023/06/13 00:56:07;;;;;;;;;;;19.60;99.90;19.50;98846.00;;;;335112;29;90920;-92
2023/06/13 00:56:18;;;;;;;;;;;19.60;99.90;19.60;98849.00;;;;336764;28;84406;-92
2023/06/13 00:56:31;;;;;;;;;;;19.60;99.90;19.60;98842.00;;;;337955;28;91451;-91
2023/06/13 00:56:44;;;;;;;;;;;19.60;99.90;19.60;98850.00;;;;335880;29;82528;-92
2023/06/13 00:56:56;;;;;;;;;;;19.60;99.90;19.70;98848.00;;;;335375;29;90209;-91
2023/06/13 00:57:08;;;;;;;;;;;19.60;99.90;19.60;98847.00;;;;334341;29;83486;-92
2023/06/13 00:57:20;;;;;;;;;;;19.60;99.90;19.60;98841.00;;;;332631;29;91277;-91
2023/06/13 00:57:33;;;;;;;;;;;19.60;99.90;19.80;98846.00;;;;337036;28;82435;-91
2023/06/13 00:57:45;;;;;;;;;;;19.60;99.90;19.80;98849.00;;;;335128;29;90841;-91
2023/06/13 00:57:58;;;;;;;;;;;19.60;99.90;19.90;98854.00;;;;334362;29;82504;-90
2023/06/13 00:58:10;;;;;;;;;;;19.60;99.90;19.90;98844.00;;;;335070;29;91488;-91
2023/06/13 00:58:22;;;;;;;;;;;19.60;99.90;19.70;98843.00;;;;336962;28;82579;-92
2023/06/13 00:58:36;;;;;;;;;;;19.60;99.90;19.60;98848.00;;;;335425;29;90674;-91
2023/06/13 00:58:47;;;;;;;;;;;19.60;99.90;19.60;98843.00;;;;337094;28;82468;-91
2023/06/13 00:58:59;;;;;;;;;;;19.60;99.90;19.60;98848.00;;;;336608;28;91663;-92
2023/06/13 00:59:12;;;;;;;;;;;19.60;99.90;19.70;98845.00;;;;335592;29;82698;-92
2023/06/13 00:59:24;;;;;;;;;;;19.60;99.90;19.60;98843.00;;;;336534;28;91343;-92
2023/06/13 00:59:36;;;;;;;;;;;19.60;99.90;19.50;98843.00;;;;336901;28;82540;-92
2023/06/13 00:59:48;;;;;;;;;;;19.60;99.90;19.50;98849.00;;;;335208;28;90708;-91
2023/06/13 01:00:01;;;;;;;;;;;19.60;99.90;19.60;98840.00;;;;335605;29;82445;-91
2023/06/13 01:00:13;;;;;;;;;;;19.60;99.90;19.70;98840.00;;;;336465;28;91114;-91
2023/06/13 01:00:26;;;;;;;;;;;19.60;99.90;19.70;98847.00;;;;336876;28;83497;-91
2023/06/13 01:00:38;;;;;;;;;;;19.60;99.90;19.80;98841.00;;;;333916;29;91205;-92
2023/06/13 01:00:52;;;;;;;;;;;19.60;99.90;19.70;98833.00;;;;336945;28;83428;-92
2023/06/13 01:01:04;;;;;;;;;;;19.70;99.90;19.70;98844.00;;;;336586;28;90176;-92
2023/06/13 01:01:19;;;;;;;;;;;19.60;99.90;19.60;98848.00;;;;336973;28;82533;-91
2023/06/13 01:01:36;;;;;;;;;;;19.70;99.90;19.60;98834.00;;;;336537;28;91701;-91
2023/06/13 01:01:48;;;;;;;;;;;19.70;99.90;19.60;98846.00;;;;336929;28;83440;-92
2023/06/13 01:02:00;;;;;;;;;;;19.60;99.90;19.60;98841.00;;;;332639;29;90581;-92
2023/06/13 01:02:15;;;;;;;;;;;19.60;99.90;19.60;98840.00;;;;334232;29;83556;-91
2023/06/13 01:02:27;;;;;;;;;;;19.60;99.90;19.60;98847.00;;;;336537;28;91163;-91
2023/06/13 01:02:40;;;;;;;;;;;19.60;99.90;19.60;98847.00;;;;338121;28;83383;-91
2023/06/13 01:02:59;;;;;;;;;;;19.60;99.90;19.60;98845.00;;;;336315;28;91465;-91
2023/06/13 01:03:15;;;;;;;;;;;19.60;99.90;19.80;98847.00;;;;336603;28;83951;-90
2023/06/13 01:03:29;;;;;;;;;;;19.60;99.90;19.80;98845.00;;;;333728;29;91716;-92
2023/06/13 01:03:45;;;;;;;;;;;19.60;99.90;19.80;98840.00;;;;335329;29;83361;-92
2023/06/13 01:03:59;;;;;;;;;;;19.60;99.90;19.90;98845.00;;;;336279;28;91611;-91
2023/06/13 01:04:13;;;;;;;;;;;19.70;99.90;19.80;98842.00;;;;335246;29;83356;-92